sensor_id;sensor_type;location;lat;lon;timestamp;P1;durP1;ratioP1;P2;durP2;ratioP2
24102;SDS011;12278;53.058;9.028;2023-11-19T00:01:13;2.73;;;2.20;;
24102;SDS011;12278;53.058;9.028;2023-11-19T00:05:14;3.03;;;2.27;;
24102;SDS011;12278;53.058;9.028;2023-11-19T00:09:15;2.83;;;2.50;;
24102;SDS011;12278;53.058;9.028;2023-11-19T00:13:16;2.93;;;2.63;;
24102;SDS011;12278;53.058;9.028;2023-11-19T00:17:17;2.47;;;2.27;;
24102;SDS011;12278;53.058;9.028;2023-11-19T00:21:18;2.87;;;2.60;;
24102;SDS011;12278;53.058;9.028;2023-11-19T00:25:18;2.93;;;2.63;;
24102;SDS011;12278;53.058;9.028;2023-11-19T00:29:20;2.60;;;2.30;;
24102;SDS011;12278;53.058;9.028;2023-11-19T00:33:20;2.77;;;2.50;;
24102;SDS011;12278;53.058;9.028;2023-11-19T00:37:21;2.87;;;2.57;;
24102;SDS011;12278;53.058;9.028;2023-11-19T00:41:22;2.97;;;2.60;;
24102;SDS011;12278;53.058;9.028;2023-11-19T00:45:22;3.23;;;2.93;;
24102;SDS011;12278;53.058;9.028;2023-11-19T00:49:23;3.93;;;3.17;;
24102;SDS011;12278;53.058;9.028;2023-11-19T00:53:24;3.60;;;3.30;;
24102;SDS011;12278;53.058;9.028;2023-11-19T00:57:25;4.57;;;3.58;;
24102;SDS011;12278;53.058;9.028;2023-11-19T01:01:26;3.70;;;3.30;;
24102;SDS011;12278;53.058;9.028;2023-11-19T01:05:27;3.97;;;3.30;;
24102;SDS011;12278;53.058;9.028;2023-11-19T01:09:28;4.87;;;3.83;;
24102;SDS011;12278;53.058;9.028;2023-11-19T01:13:28;4.77;;;3.60;;
24102;SDS011;12278;53.058;9.028;2023-11-19T01:17:29;5.20;;;3.53;;
24102;SDS011;12278;53.058;9.028;2023-11-19T01:21:31;3.63;;;2.93;;
24102;SDS011;12278;53.058;9.028;2023-11-19T01:25:32;6.10;;;3.53;;
24102;SDS011;12278;53.058;9.028;2023-11-19T01:29:32;4.73;;;3.90;;
24102;SDS011;12278;53.058;9.028;2023-11-19T01:33:33;4.22;;;3.28;;
24102;SDS011;12278;53.058;9.028;2023-11-19T01:37:35;5.77;;;4.40;;
24102;SDS011;12278;53.058;9.028;2023-11-19T01:41:36;6.05;;;4.65;;
24102;SDS011;12278;53.058;9.028;2023-11-19T01:45:38;3.90;;;3.30;;
24102;SDS011;12278;53.058;9.028;2023-11-19T01:49:40;5.97;;;4.03;;
24102;SDS011;12278;53.058;9.028;2023-11-19T01:53:40;5.10;;;4.23;;
24102;SDS011;12278;53.058;9.028;2023-11-19T01:57:41;5.10;;;4.00;;
24102;SDS011;12278;53.058;9.028;2023-11-19T02:01:42;5.03;;;4.03;;
24102;SDS011;12278;53.058;9.028;2023-11-19T02:05:42;4.97;;;4.23;;
24102;SDS011;12278;53.058;9.028;2023-11-19T02:09:43;5.38;;;4.30;;
24102;SDS011;12278;53.058;9.028;2023-11-19T02:13:44;6.45;;;4.90;;
24102;SDS011;12278;53.058;9.028;2023-11-19T02:17:44;4.43;;;3.92;;
24102;SDS011;12278;53.058;9.028;2023-11-19T02:21:45;7.03;;;4.72;;
24102;SDS011;12278;53.058;9.028;2023-11-19T02:29:52;8.23;;;5.20;;
24102;SDS011;12278;53.058;9.028;2023-11-19T02:33:53;6.88;;;5.32;;
24102;SDS011;12278;53.058;9.028;2023-11-19T02:37:55;6.50;;;5.13;;
24102;SDS011;12278;53.058;9.028;2023-11-19T02:41:55;7.22;;;5.80;;
24102;SDS011;12278;53.058;9.028;2023-11-19T02:45:56;7.70;;;5.55;;
24102;SDS011;12278;53.058;9.028;2023-11-19T02:49:57;7.82;;;5.50;;
24102;SDS011;12278;53.058;9.028;2023-11-19T02:53:57;8.65;;;6.28;;
24102;SDS011;12278;53.058;9.028;2023-11-19T02:57:58;9.13;;;6.60;;
24102;SDS011;12278;53.058;9.028;2023-11-19T03:02:00;9.77;;;6.60;;
24102;SDS011;12278;53.058;9.028;2023-11-19T03:06:00;10.38;;;6.80;;
24102;SDS011;12278;53.058;9.028;2023-11-19T03:10:05;9.52;;;8.02;;
24102;SDS011;12278;53.058;9.028;2023-11-19T03:14:06;12.60;;;8.73;;
24102;SDS011;12278;53.058;9.028;2023-11-19T03:18:07;10.90;;;8.45;;
24102;SDS011;12278;53.058;9.028;2023-11-19T03:22:08;11.80;;;8.23;;
24102;SDS011;12278;53.058;9.028;2023-11-19T03:26:11;14.55;;;9.38;;
24102;SDS011;12278;53.058;9.028;2023-11-19T03:30:11;12.48;;;8.07;;
24102;SDS011;12278;53.058;9.028;2023-11-19T03:34:12;14.27;;;7.90;;
24102;SDS011;12278;53.058;9.028;2023-11-19T03:38:12;13.43;;;8.18;;
24102;SDS011;12278;53.058;9.028;2023-11-19T03:42:14;13.25;;;7.70;;
24102;SDS011;12278;53.058;9.028;2023-11-19T03:46:21;12.73;;;8.70;;
24102;SDS011;12278;53.058;9.028;2023-11-19T03:50:22;16.23;;;9.25;;
24102;SDS011;12278;53.058;9.028;2023-11-19T03:54:23;16.85;;;9.45;;
24102;SDS011;12278;53.058;9.028;2023-11-19T03:58:23;12.02;;;7.85;;
24102;SDS011;12278;53.058;9.028;2023-11-19T04:02:24;15.07;;;8.80;;
24102;SDS011;12278;53.058;9.028;2023-11-19T04:06:28;10.30;;;7.70;;
24102;SDS011;12278;53.058;9.028;2023-11-19T04:10:29;15.85;;;8.45;;
24102;SDS011;12278;53.058;9.028;2023-11-19T04:14:29;16.15;;;8.70;;
24102;SDS011;12278;53.058;9.028;2023-11-19T04:18:30;13.32;;;8.82;;
24102;SDS011;12278;53.058;9.028;2023-11-19T04:22:32;12.70;;;8.88;;
24102;SDS011;12278;53.058;9.028;2023-11-19T04:26:32;14.05;;;8.55;;
24102;SDS011;12278;53.058;9.028;2023-11-19T04:30:34;14.60;;;9.32;;
24102;SDS011;12278;53.058;9.028;2023-11-19T04:34:35;14.32;;;9.60;;
24102;SDS011;12278;53.058;9.028;2023-11-19T04:38:37;17.80;;;8.95;;
24102;SDS011;12278;53.058;9.028;2023-11-19T04:42:41;13.73;;;8.40;;
24102;SDS011;12278;53.058;9.028;2023-11-19T04:46:42;14.90;;;9.00;;
24102;SDS011;12278;53.058;9.028;2023-11-19T04:50:45;16.15;;;9.10;;
24102;SDS011;12278;53.058;9.028;2023-11-19T04:54:46;15.45;;;9.20;;
24102;SDS011;12278;53.058;9.028;2023-11-19T04:58:48;13.30;;;8.50;;
24102;SDS011;12278;53.058;9.028;2023-11-19T05:02:49;20.48;;;11.05;;
24102;SDS011;12278;53.058;9.028;2023-11-19T05:06:49;15.60;;;8.23;;
24102;SDS011;12278;53.058;9.028;2023-11-19T05:10:50;11.60;;;7.35;;
24102;SDS011;12278;53.058;9.028;2023-11-19T05:14:50;16.55;;;8.60;;
24102;SDS011;12278;53.058;9.028;2023-11-19T05:18:51;17.33;;;8.05;;
24102;SDS011;12278;53.058;9.028;2023-11-19T05:22:52;18.80;;;7.82;;
24102;SDS011;12278;53.058;9.028;2023-11-19T05:26:53;15.10;;;7.85;;
24102;SDS011;12278;53.058;9.028;2023-11-19T05:30:54;15.57;;;8.50;;
24102;SDS011;12278;53.058;9.028;2023-11-19T05:34:55;16.25;;;8.27;;
24102;SDS011;12278;53.058;9.028;2023-11-19T05:38:56;16.13;;;8.27;;
24102;SDS011;12278;53.058;9.028;2023-11-19T05:42:56;11.52;;;7.28;;
24102;SDS011;12278;53.058;9.028;2023-11-19T05:46:57;18.98;;;7.80;;
24102;SDS011;12278;53.058;9.028;2023-11-19T05:50:58;13.38;;;6.85;;
24102;SDS011;12278;53.058;9.028;2023-11-19T05:55:01;14.60;;;7.07;;
24102;SDS011;12278;53.058;9.028;2023-11-19T05:59:09;12.48;;;6.68;;
24102;SDS011;12278;53.058;9.028;2023-11-19T06:03:15;11.10;;;5.10;;
24102;SDS011;12278;53.058;9.028;2023-11-19T06:07:15;19.70;;;6.68;;
24102;SDS011;12278;53.058;9.028;2023-11-19T06:11:19;16.95;;;7.32;;
24102;SDS011;12278;53.058;9.028;2023-11-19T06:15:20;15.10;;;6.38;;
24102;SDS011;12278;53.058;9.028;2023-11-19T06:19:21;10.27;;;5.70;;
24102;SDS011;12278;53.058;9.028;2023-11-19T06:23:24;10.10;;;6.22;;
24102;SDS011;12278;53.058;9.028;2023-11-19T06:27:25;9.88;;;5.53;;
24102;SDS011;12278;53.058;9.028;2023-11-19T06:31:25;15.05;;;5.90;;
24102;SDS011;12278;53.058;9.028;2023-11-19T06:35:26;10.75;;;4.90;;
24102;SDS011;12278;53.058;9.028;2023-11-19T06:39:29;13.85;;;5.57;;
24102;SDS011;12278;53.058;9.028;2023-11-19T06:43:29;14.60;;;5.38;;
24102;SDS011;12278;53.058;9.028;2023-11-19T06:47:30;15.25;;;4.97;;
24102;SDS011;12278;53.058;9.028;2023-11-19T06:51:31;19.05;;;4.53;;
24102;SDS011;12278;53.058;9.028;2023-11-19T06:55:31;9.88;;;4.85;;
24102;SDS011;12278;53.058;9.028;2023-11-19T06:59:32;13.70;;;5.15;;
24102;SDS011;12278;53.058;9.028;2023-11-19T07:03:34;10.57;;;5.03;;
24102;SDS011;12278;53.058;9.028;2023-11-19T07:07:35;17.20;;;5.85;;
24102;SDS011;12278;53.058;9.028;2023-11-19T07:11:37;13.80;;;3.97;;
24102;SDS011;12278;53.058;9.028;2023-11-19T07:15:38;15.70;;;6.07;;
24102;SDS011;12278;53.058;9.028;2023-11-19T07:19:39;11.27;;;3.85;;
24102;SDS011;12278;53.058;9.028;2023-11-19T07:23:39;11.68;;;5.53;;
24102;SDS011;12278;53.058;9.028;2023-11-19T07:27:41;17.13;;;4.30;;
24102;SDS011;12278;53.058;9.028;2023-11-19T07:31:42;19.52;;;4.65;;
24102;SDS011;12278;53.058;9.028;2023-11-19T07:35:46;13.10;;;6.47;;
24102;SDS011;12278;53.058;9.028;2023-11-19T07:39:47;9.20;;;5.30;;
24102;SDS011;12278;53.058;9.028;2023-11-19T07:43:47;12.23;;;4.82;;
24102;SDS011;12278;53.058;9.028;2023-11-19T07:47:48;24.80;;;6.47;;
24102;SDS011;12278;53.058;9.028;2023-11-19T07:51:48;19.25;;;4.65;;
24102;SDS011;12278;53.058;9.028;2023-11-19T07:55:49;18.73;;;4.95;;
24102;SDS011;12278;53.058;9.028;2023-11-19T07:59:50;19.02;;;5.28;;
24102;SDS011;12278;53.058;9.028;2023-11-19T08:03:50;19.88;;;4.25;;
24102;SDS011;12278;53.058;9.028;2023-11-19T08:07:51;16.38;;;5.30;;
24102;SDS011;12278;53.058;9.028;2023-11-19T08:11:54;10.45;;;4.05;;
24102;SDS011;12278;53.058;9.028;2023-11-19T08:15:56;17.85;;;4.63;;
24102;SDS011;12278;53.058;9.028;2023-11-19T08:19:58;15.35;;;4.60;;
24102;SDS011;12278;53.058;9.028;2023-11-19T08:24:00;11.02;;;5.13;;
24102;SDS011;12278;53.058;9.028;2023-11-19T08:28:01;18.17;;;6.80;;
24102;SDS011;12278;53.058;9.028;2023-11-19T08:32:03;13.07;;;4.20;;
24102;SDS011;12278;53.058;9.028;2023-11-19T08:36:04;17.42;;;5.10;;
24102;SDS011;12278;53.058;9.028;2023-11-19T08:40:06;16.98;;;5.15;;
24102;SDS011;12278;53.058;9.028;2023-11-19T08:44:07;10.48;;;5.10;;
24102;SDS011;12278;53.058;9.028;2023-11-19T08:48:08;20.25;;;4.38;;
24102;SDS011;12278;53.058;9.028;2023-11-19T08:52:08;13.85;;;4.60;;
24102;SDS011;12278;53.058;9.028;2023-11-19T08:56:10;10.27;;;4.80;;
24102;SDS011;12278;53.058;9.028;2023-11-19T09:00:11;12.15;;;3.55;;
24102;SDS011;12278;53.058;9.028;2023-11-19T09:04:14;24.27;;;4.90;;
24102;SDS011;12278;53.058;9.028;2023-11-19T09:08:16;9.23;;;4.07;;
24102;SDS011;12278;53.058;9.028;2023-11-19T09:12:16;11.65;;;3.17;;
24102;SDS011;12278;53.058;9.028;2023-11-19T09:16:17;10.95;;;3.40;;
24102;SDS011;12278;53.058;9.028;2023-11-19T09:20:17;12.88;;;3.60;;
24102;SDS011;12278;53.058;9.028;2023-11-19T09:24:18;10.70;;;4.75;;
24102;SDS011;12278;53.058;9.028;2023-11-19T09:28:19;18.67;;;4.80;;
24102;SDS011;12278;53.058;9.028;2023-11-19T09:32:19;9.50;;;3.60;;
24102;SDS011;12278;53.058;9.028;2023-11-19T09:36:20;15.27;;;4.60;;
24102;SDS011;12278;53.058;9.028;2023-11-19T09:40:21;18.00;;;4.70;;
24102;SDS011;12278;53.058;9.028;2023-11-19T09:44:21;13.30;;;5.40;;
24102;SDS011;12278;53.058;9.028;2023-11-19T09:48:22;16.30;;;5.53;;
24102;SDS011;12278;53.058;9.028;2023-11-19T09:52:25;16.40;;;4.15;;
24102;SDS011;12278;53.058;9.028;2023-11-19T09:56:26;9.65;;;3.72;;
24102;SDS011;12278;53.058;9.028;2023-11-19T10:00:29;11.20;;;4.07;;
24102;SDS011;12278;53.058;9.028;2023-11-19T10:04:30;16.45;;;5.28;;
24102;SDS011;12278;53.058;9.028;2023-11-19T10:08:37;12.75;;;4.20;;
24102;SDS011;12278;53.058;9.028;2023-11-19T10:12:39;15.90;;;5.53;;
24102;SDS011;12278;53.058;9.028;2023-11-19T10:16:41;17.58;;;5.95;;
24102;SDS011;12278;53.058;9.028;2023-11-19T10:20:42;22.52;;;5.50;;
24102;SDS011;12278;53.058;9.028;2023-11-19T10:24:44;11.88;;;3.90;;
24102;SDS011;12278;53.058;9.028;2023-11-19T10:28:45;13.95;;;5.25;;
24102;SDS011;12278;53.058;9.028;2023-11-19T10:32:57;14.20;;;4.93;;
24102;SDS011;12278;53.058;9.028;2023-11-19T10:37:08;16.50;;;5.07;;
24102;SDS011;12278;53.058;9.028;2023-11-19T10:41:10;16.67;;;5.50;;
24102;SDS011;12278;53.058;9.028;2023-11-19T10:45:23;10.55;;;4.50;;
24102;SDS011;12278;53.058;9.028;2023-11-19T10:49:23;16.63;;;4.88;;
24102;SDS011;12278;53.058;9.028;2023-11-19T10:53:24;15.77;;;4.00;;
24102;SDS011;12278;53.058;9.028;2023-11-19T10:57:26;13.80;;;5.22;;
24102;SDS011;12278;53.058;9.028;2023-11-19T11:01:45;10.35;;;3.83;;
24102;SDS011;12278;53.058;9.028;2023-11-19T11:05:48;15.77;;;5.13;;
24102;SDS011;12278;53.058;9.028;2023-11-19T11:09:51;9.07;;;5.70;;
24102;SDS011;12278;53.058;9.028;2023-11-19T11:13:51;10.65;;;4.80;;
24102;SDS011;12278;53.058;9.028;2023-11-19T11:17:59;19.13;;;5.47;;
24102;SDS011;12278;53.058;9.028;2023-11-19T11:22:04;14.68;;;4.72;;
24102;SDS011;12278;53.058;9.028;2023-11-19T11:26:14;12.57;;;4.85;;
24102;SDS011;12278;53.058;9.028;2023-11-19T11:30:50;17.10;;;3.58;;
24102;SDS011;12278;53.058;9.028;2023-11-19T11:39:21;15.55;;;4.65;;
24102;SDS011;12278;53.058;9.028;2023-11-19T11:55:59;12.40;;;3.63;;
24102;SDS011;12278;53.058;9.028;2023-11-19T12:00:01;21.17;;;4.43;;
24102;SDS011;12278;53.058;9.028;2023-11-19T12:04:05;17.70;;;5.22;;
24102;SDS011;12278;53.058;9.028;2023-11-19T12:08:06;22.40;;;4.80;;
24102;SDS011;12278;53.058;9.028;2023-11-19T12:16:16;16.35;;;4.18;;
24102;SDS011;12278;53.058;9.028;2023-11-19T12:20:17;16.98;;;5.20;;
24102;SDS011;12278;53.058;9.028;2023-11-19T12:24:19;14.88;;;5.22;;
24102;SDS011;12278;53.058;9.028;2023-11-19T12:28:21;23.58;;;4.80;;
24102;SDS011;12278;53.058;9.028;2023-11-19T12:32:24;14.00;;;5.40;;
24102;SDS011;12278;53.058;9.028;2023-11-19T12:36:24;13.20;;;5.20;;
24102;SDS011;12278;53.058;9.028;2023-11-19T12:40:25;17.52;;;6.10;;
24102;SDS011;12278;53.058;9.028;2023-11-19T12:44:26;17.75;;;4.25;;
24102;SDS011;12278;53.058;9.028;2023-11-19T12:48:26;10.27;;;3.55;;
24102;SDS011;12278;53.058;9.028;2023-11-19T12:52:27;14.70;;;5.15;;
24102;SDS011;12278;53.058;9.028;2023-11-19T12:56:28;8.95;;;3.45;;
24102;SDS011;12278;53.058;9.028;2023-11-19T13:00:29;9.55;;;3.72;;
24102;SDS011;12278;53.058;9.028;2023-11-19T13:04:30;9.25;;;3.10;;
24102;SDS011;12278;53.058;9.028;2023-11-19T13:08:38;13.23;;;3.20;;
24102;SDS011;12278;53.058;9.028;2023-11-19T13:12:39;5.80;;;2.80;;
24102;SDS011;12278;53.058;9.028;2023-11-19T13:16:40;5.05;;;2.17;;
24102;SDS011;12278;53.058;9.028;2023-11-19T13:20:42;5.63;;;3.15;;
24102;SDS011;12278;53.058;9.028;2023-11-19T13:24:43;7.20;;;1.83;;
24102;SDS011;12278;53.058;9.028;2023-11-19T13:28:44;4.55;;;1.70;;
24102;SDS011;12278;53.058;9.028;2023-11-19T13:32:46;6.90;;;2.13;;
24102;SDS011;12278;53.058;9.028;2023-11-19T13:36:47;4.40;;;1.63;;
24102;SDS011;12278;53.058;9.028;2023-11-19T13:40:48;2.67;;;1.77;;
24102;SDS011;12278;53.058;9.028;2023-11-19T13:44:48;4.88;;;1.65;;
24102;SDS011;12278;53.058;9.028;2023-11-19T13:48:49;3.17;;;1.60;;
24102;SDS011;12278;53.058;9.028;2023-11-19T13:52:50;3.30;;;1.77;;
24102;SDS011;12278;53.058;9.028;2023-11-19T13:56:54;5.03;;;1.42;;
24102;SDS011;12278;53.058;9.028;2023-11-19T14:00:55;4.03;;;2.15;;
24102;SDS011;12278;53.058;9.028;2023-11-19T14:04:56;7.22;;;3.40;;
24102;SDS011;12278;53.058;9.028;2023-11-19T14:08:56;5.47;;;2.17;;
24102;SDS011;12278;53.058;9.028;2023-11-19T14:12:57;12.55;;;2.25;;
24102;SDS011;12278;53.058;9.028;2023-11-19T14:16:58;5.53;;;3.22;;
24102;SDS011;12278;53.058;9.028;2023-11-19T14:20:59;10.98;;;3.10;;
24102;SDS011;12278;53.058;9.028;2023-11-19T14:25:00;5.75;;;3.17;;
24102;SDS011;12278;53.058;9.028;2023-11-19T14:29:00;8.27;;;3.53;;
24102;SDS011;12278;53.058;9.028;2023-11-19T14:33:01;7.80;;;3.63;;
24102;SDS011;12278;53.058;9.028;2023-11-19T14:37:03;11.90;;;3.33;;
24102;SDS011;12278;53.058;9.028;2023-11-19T14:41:04;8.10;;;3.90;;
24102;SDS011;12278;53.058;9.028;2023-11-19T14:45:05;11.05;;;4.22;;
24102;SDS011;12278;53.058;9.028;2023-11-19T14:49:07;8.55;;;3.08;;
24102;SDS011;12278;53.058;9.028;2023-11-19T14:53:08;6.20;;;3.97;;
24102;SDS011;12278;53.058;9.028;2023-11-19T14:57:08;8.65;;;3.10;;
24102;SDS011;12278;53.058;9.028;2023-11-19T15:01:12;6.43;;;2.88;;
24102;SDS011;12278;53.058;9.028;2023-11-19T15:05:13;10.93;;;2.88;;
24102;SDS011;12278;53.058;9.028;2023-11-19T15:09:14;11.85;;;3.50;;
24102;SDS011;12278;53.058;9.028;2023-11-19T15:13:17;9.20;;;3.15;;
24102;SDS011;12278;53.058;9.028;2023-11-19T15:17:18;9.13;;;2.70;;
24102;SDS011;12278;53.058;9.028;2023-11-19T15:21:18;6.35;;;2.72;;
24102;SDS011;12278;53.058;9.028;2023-11-19T15:25:19;7.30;;;2.70;;
24102;SDS011;12278;53.058;9.028;2023-11-19T15:29:20;7.65;;;3.17;;
24102;SDS011;12278;53.058;9.028;2023-11-19T15:33:20;7.18;;;3.33;;
24102;SDS011;12278;53.058;9.028;2023-11-19T15:37:22;6.72;;;3.35;;
24102;SDS011;12278;53.058;9.028;2023-11-19T15:41:23;6.38;;;2.80;;
24102;SDS011;12278;53.058;9.028;2023-11-19T15:45:23;6.47;;;2.40;;
24102;SDS011;12278;53.058;9.028;2023-11-19T15:49:24;9.20;;;2.97;;
24102;SDS011;12278;53.058;9.028;2023-11-19T15:53:24;11.15;;;3.70;;
24102;SDS011;12278;53.058;9.028;2023-11-19T15:57:25;11.65;;;3.58;;
24102;SDS011;12278;53.058;9.028;2023-11-19T16:01:27;8.30;;;3.13;;
24102;SDS011;12278;53.058;9.028;2023-11-19T16:05:28;10.00;;;3.92;;
24102;SDS011;12278;53.058;9.028;2023-11-19T16:09:29;9.75;;;3.00;;
24102;SDS011;12278;53.058;9.028;2023-11-19T16:13:30;12.85;;;4.53;;
24102;SDS011;12278;53.058;9.028;2023-11-19T16:17:30;6.82;;;3.20;;
24102;SDS011;12278;53.058;9.028;2023-11-19T16:21:31;8.52;;;4.25;;
24102;SDS011;12278;53.058;9.028;2023-11-19T16:25:34;22.15;;;5.15;;
24102;SDS011;12278;53.058;9.028;2023-11-19T16:29:37;9.20;;;3.00;;
24102;SDS011;12278;53.058;9.028;2023-11-19T16:33:37;9.80;;;3.40;;
24102;SDS011;12278;53.058;9.028;2023-11-19T16:37:38;10.05;;;3.38;;
24102;SDS011;12278;53.058;9.028;2023-11-19T16:41:39;12.52;;;3.42;;
24102;SDS011;12278;53.058;9.028;2023-11-19T16:45:40;8.00;;;3.70;;
24102;SDS011;12278;53.058;9.028;2023-11-19T16:49:41;8.65;;;3.17;;
24102;SDS011;12278;53.058;9.028;2023-11-19T16:53:46;9.90;;;4.38;;
24102;SDS011;12278;53.058;9.028;2023-11-19T16:57:47;6.32;;;3.72;;
24102;SDS011;12278;53.058;9.028;2023-11-19T17:01:48;11.23;;;3.30;;
24102;SDS011;12278;53.058;9.028;2023-11-19T17:05:48;13.10;;;5.15;;
24102;SDS011;12278;53.058;9.028;2023-11-19T17:09:50;8.68;;;3.92;;
24102;SDS011;12278;53.058;9.028;2023-11-19T17:13:51;14.45;;;3.80;;
24102;SDS011;12278;53.058;9.028;2023-11-19T17:17:51;10.80;;;3.10;;
24102;SDS011;12278;53.058;9.028;2023-11-19T17:21:52;8.68;;;4.13;;
24102;SDS011;12278;53.058;9.028;2023-11-19T17:25:53;10.70;;;4.20;;
24102;SDS011;12278;53.058;9.028;2023-11-19T17:29:55;11.05;;;3.55;;
24102;SDS011;12278;53.058;9.028;2023-11-19T17:33:56;12.63;;;4.13;;
24102;SDS011;12278;53.058;9.028;2023-11-19T17:37:57;12.90;;;5.05;;
24102;SDS011;12278;53.058;9.028;2023-11-19T17:41:58;9.15;;;3.78;;
24102;SDS011;12278;53.058;9.028;2023-11-19T17:45:59;11.02;;;4.43;;
24102;SDS011;12278;53.058;9.028;2023-11-19T17:50:01;11.30;;;4.53;;
24102;SDS011;12278;53.058;9.028;2023-11-19T17:54:03;14.40;;;5.35;;
24102;SDS011;12278;53.058;9.028;2023-11-19T17:58:03;10.05;;;4.05;;
24102;SDS011;12278;53.058;9.028;2023-11-19T18:02:04;8.65;;;4.22;;
24102;SDS011;12278;53.058;9.028;2023-11-19T18:06:05;13.52;;;5.32;;
24102;SDS011;12278;53.058;9.028;2023-11-19T18:10:06;9.25;;;3.80;;
24102;SDS011;12278;53.058;9.028;2023-11-19T18:14:08;6.15;;;5.00;;
24102;SDS011;12278;53.058;9.028;2023-11-19T18:18:10;16.00;;;4.18;;
24102;SDS011;12278;53.058;9.028;2023-11-19T18:22:10;18.20;;;6.80;;
24102;SDS011;12278;53.058;9.028;2023-11-19T18:26:11;13.93;;;3.80;;
24102;SDS011;12278;53.058;9.028;2023-11-19T18:30:12;13.00;;;5.00;;
24102;SDS011;12278;53.058;9.028;2023-11-19T18:34:13;13.80;;;4.07;;
24102;SDS011;12278;53.058;9.028;2023-11-19T18:38:14;7.03;;;4.30;;
24102;SDS011;12278;53.058;9.028;2023-11-19T18:42:15;10.38;;;3.97;;
24102;SDS011;12278;53.058;9.028;2023-11-19T18:46:17;9.55;;;3.85;;
24102;SDS011;12278;53.058;9.028;2023-11-19T18:50:17;13.50;;;4.95;;
24102;SDS011;12278;53.058;9.028;2023-11-19T18:54:18;15.40;;;4.80;;
24102;SDS011;12278;53.058;9.028;2023-11-19T18:58:21;8.77;;;4.68;;
24102;SDS011;12278;53.058;9.028;2023-11-19T19:02:22;15.98;;;5.43;;
24102;SDS011;12278;53.058;9.028;2023-11-19T19:06:23;24.48;;;6.80;;
24102;SDS011;12278;53.058;9.028;2023-11-19T19:10:25;15.50;;;5.03;;
24102;SDS011;12278;53.058;9.028;2023-11-19T19:14:25;11.77;;;5.80;;
24102;SDS011;12278;53.058;9.028;2023-11-19T19:18:26;14.65;;;5.22;;
24102;SDS011;12278;53.058;9.028;2023-11-19T19:22:27;16.02;;;5.10;;
24102;SDS011;12278;53.058;9.028;2023-11-19T19:26:27;14.30;;;5.53;;
24102;SDS011;12278;53.058;9.028;2023-11-19T19:30:29;10.18;;;5.00;;
24102;SDS011;12278;53.058;9.028;2023-11-19T19:34:29;13.75;;;5.18;;
24102;SDS011;12278;53.058;9.028;2023-11-19T19:38:30;16.02;;;3.90;;
24102;SDS011;12278;53.058;9.028;2023-11-19T19:42:31;15.15;;;4.95;;
24102;SDS011;12278;53.058;9.028;2023-11-19T19:46:31;13.35;;;4.88;;
24102;SDS011;12278;53.058;9.028;2023-11-19T19:50:32;15.13;;;5.60;;
24102;SDS011;12278;53.058;9.028;2023-11-19T19:54:32;12.27;;;5.35;;
24102;SDS011;12278;53.058;9.028;2023-11-19T19:58:35;12.90;;;4.80;;
24102;SDS011;12278;53.058;9.028;2023-11-19T20:02:36;7.35;;;4.25;;
24102;SDS011;12278;53.058;9.028;2023-11-19T20:06:37;17.45;;;4.05;;
24102;SDS011;12278;53.058;9.028;2023-11-19T20:10:38;5.30;;;4.35;;
24102;SDS011;12278;53.058;9.028;2023-11-19T20:14:38;7.38;;;3.95;;
24102;SDS011;12278;53.058;9.028;2023-11-19T20:18:39;13.63;;;4.25;;
24102;SDS011;12278;53.058;9.028;2023-11-19T20:22:40;10.00;;;4.72;;
24102;SDS011;12278;53.058;9.028;2023-11-19T20:26:41;12.00;;;4.65;;
24102;SDS011;12278;53.058;9.028;2023-11-19T20:30:42;11.75;;;4.60;;
24102;SDS011;12278;53.058;9.028;2023-11-19T20:34:42;9.02;;;4.60;;
24102;SDS011;12278;53.058;9.028;2023-11-19T20:38:43;8.68;;;3.72;;
24102;SDS011;12278;53.058;9.028;2023-11-19T20:42:43;9.25;;;3.75;;
24102;SDS011;12278;53.058;9.028;2023-11-19T20:46:44;12.15;;;4.90;;
24102;SDS011;12278;53.058;9.028;2023-11-19T20:50:45;6.40;;;3.97;;
24102;SDS011;12278;53.058;9.028;2023-11-19T20:54:47;10.07;;;4.45;;
24102;SDS011;12278;53.058;9.028;2023-11-19T20:58:48;11.40;;;4.32;;
24102;SDS011;12278;53.058;9.028;2023-11-19T21:02:48;10.75;;;5.43;;
24102;SDS011;12278;53.058;9.028;2023-11-19T21:06:49;11.60;;;4.97;;
24102;SDS011;12278;53.058;9.028;2023-11-19T21:10:50;9.32;;;4.38;;
24102;SDS011;12278;53.058;9.028;2023-11-19T21:14:51;11.07;;;4.55;;
24102;SDS011;12278;53.058;9.028;2023-11-19T21:18:52;16.05;;;5.93;;
24102;SDS011;12278;53.058;9.028;2023-11-19T21:22:52;11.30;;;4.85;;
24102;SDS011;12278;53.058;9.028;2023-11-19T21:26:53;17.27;;;5.55;;
24102;SDS011;12278;53.058;9.028;2023-11-19T21:30:54;11.10;;;5.03;;
24102;SDS011;12278;53.058;9.028;2023-11-19T21:34:57;11.57;;;4.50;;
24102;SDS011;12278;53.058;9.028;2023-11-19T21:38:58;8.32;;;5.45;;
24102;SDS011;12278;53.058;9.028;2023-11-19T21:42:58;11.98;;;5.30;;
24102;SDS011;12278;53.058;9.028;2023-11-19T21:46:59;14.80;;;6.18;;
24102;SDS011;12278;53.058;9.028;2023-11-19T21:51:03;15.95;;;5.75;;
24102;SDS011;12278;53.058;9.028;2023-11-19T21:55:04;12.65;;;5.22;;
24102;SDS011;12278;53.058;9.028;2023-11-19T21:59:07;11.68;;;5.88;;
24102;SDS011;12278;53.058;9.028;2023-11-19T22:03:07;12.80;;;4.82;;
24102;SDS011;12278;53.058;9.028;2023-11-19T22:07:08;10.77;;;5.55;;
24102;SDS011;12278;53.058;9.028;2023-11-19T22:11:09;10.77;;;5.53;;
24102;SDS011;12278;53.058;9.028;2023-11-19T22:15:11;9.60;;;4.22;;
24102;SDS011;12278;53.058;9.028;2023-11-19T22:19:11;19.53;;;5.73;;
24102;SDS011;12278;53.058;9.028;2023-11-19T22:23:12;11.32;;;5.22;;
24102;SDS011;12278;53.058;9.028;2023-11-19T22:27:12;12.80;;;5.22;;
24102;SDS011;12278;53.058;9.028;2023-11-19T22:31:13;9.63;;;4.05;;
24102;SDS011;12278;53.058;9.028;2023-11-19T22:35:14;6.63;;;4.20;;
24102;SDS011;12278;53.058;9.028;2023-11-19T22:39:14;6.85;;;3.72;;
24102;SDS011;12278;53.058;9.028;2023-11-19T22:43:15;9.38;;;3.00;;
24102;SDS011;12278;53.058;9.028;2023-11-19T22:47:16;6.78;;;3.83;;
24102;SDS011;12278;53.058;9.028;2023-11-19T22:51:17;4.50;;;3.00;;
24102;SDS011;12278;53.058;9.028;2023-11-19T22:55:17;5.15;;;3.38;;
24102;SDS011;12278;53.058;9.028;2023-11-19T22:59:18;4.40;;;2.60;;
24102;SDS011;12278;53.058;9.028;2023-11-19T23:03:20;2.85;;;1.85;;
24102;SDS011;12278;53.058;9.028;2023-11-19T23:07:21;1.70;;;1.10;;
24102;SDS011;12278;53.058;9.028;2023-11-19T23:11:21;2.05;;;1.50;;
24102;SDS011;12278;53.058;9.028;2023-11-19T23:15:22;1.35;;;1.10;;
24102;SDS011;12278;53.058;9.028;2023-11-19T23:19:25;1.70;;;1.08;;
24102;SDS011;12278;53.058;9.028;2023-11-19T23:23:25;1.17;;;0.98;;
24102;SDS011;12278;53.058;9.028;2023-11-19T23:27:26;2.80;;;1.25;;
24102;SDS011;12278;53.058;9.028;2023-11-19T23:31:27;1.75;;;1.55;;
24102;SDS011;12278;53.058;9.028;2023-11-19T23:35:27;3.05;;;1.50;;
24102;SDS011;12278;53.058;9.028;2023-11-19T23:39:28;2.17;;;1.42;;
24102;SDS011;12278;53.058;9.028;2023-11-19T23:43:28;4.70;;;1.75;;
24102;SDS011;12278;53.058;9.028;2023-11-19T23:47:30;5.38;;;1.75;;
24102;SDS011;12278;53.058;9.028;2023-11-19T23:51:30;2.13;;;1.33;;
24102;SDS011;12278;53.058;9.028;2023-11-19T23:55:31;2.35;;;1.40;;
24102;SDS011;12278;53.058;9.028;2023-11-19T23:59:32;2.72;;;1.50;;
